sensor_id;sensor_type;location;lat;lon;timestamp;temperature;humidity
75457;SHT31;64036;48.266;14.192;2023-01-16T00:04:58;3.24;79.31
75457;SHT31;64036;48.266;14.192;2023-01-16T00:07:45;3.23;79.46
75457;SHT31;64036;48.266;14.192;2023-01-16T00:10:13;3.26;79.50
75457;SHT31;64036;48.266;14.192;2023-01-16T00:12:44;3.27;79.42
75457;SHT31;64036;48.266;14.192;2023-01-16T00:21:43;3.27;79.49
75457;SHT31;64036;48.266;14.192;2023-01-16T00:24:35;3.27;79.51
75457;SHT31;64036;48.266;14.192;2023-01-16T00:27:08;3.28;79.51
75457;SHT31;64036;48.266;14.192;2023-01-16T00:30:03;3.29;79.54
75457;SHT31;64036;48.266;14.192;2023-01-16T00:32:44;3.31;79.54
75457;SHT31;64036;48.266;14.192;2023-01-16T00:35:22;3.31;79.43
75457;SHT31;64036;48.266;14.192;2023-01-16T00:37:51;3.28;79.47
75457;SHT31;64036;48.266;14.192;2023-01-16T00:40:18;3.26;79.65
75457;SHT31;64036;48.266;14.192;2023-01-16T00:42:44;3.26;79.73
75457;SHT31;64036;48.266;14.192;2023-01-16T00:45:13;3.28;79.80
75457;SHT31;64036;48.266;14.192;2023-01-16T00:47:42;3.29;79.79
75457;SHT31;64036;48.266;14.192;2023-01-16T00:50:18;3.29;79.81
75457;SHT31;64036;48.266;14.192;2023-01-16T00:52:46;3.28;79.88
75457;SHT31;64036;48.266;14.192;2023-01-16T00:55:47;3.26;80.01
75457;SHT31;64036;48.266;14.192;2023-01-16T00:58:35;3.27;80.02
75457;SHT31;64036;48.266;14.192;2023-01-16T01:01:10;3.28;80.02
75457;SHT31;64036;48.266;14.192;2023-01-16T01:03:37;3.30;80.02
75457;SHT31;64036;48.266;14.192;2023-01-16T01:06:15;3.32;79.99
75457;SHT31;64036;48.266;14.192;2023-01-16T01:09:11;3.33;79.98
75457;SHT31;64036;48.266;14.192;2023-01-16T01:11:40;3.35;80.00
75457;SHT31;64036;48.266;14.192;2023-01-16T01:14:27;3.40;79.92
75457;SHT31;64036;48.266;14.192;2023-01-16T01:17:02;3.42;79.84
75457;SHT31;64036;48.266;14.192;2023-01-16T01:19:27;3.43;79.84
75457;SHT31;64036;48.266;14.192;2023-01-16T01:22:18;3.44;79.79
75457;SHT31;64036;48.266;14.192;2023-01-16T01:24:49;3.46;79.80
75457;SHT31;64036;48.266;14.192;2023-01-16T01:27:45;3.47;79.70
75457;SHT31;64036;48.266;14.192;2023-01-16T01:30:19;3.49;79.71
75457;SHT31;64036;48.266;14.192;2023-01-16T01:32:57;3.52;79.68
75457;SHT31;64036;48.266;14.192;2023-01-16T01:35:49;3.55;79.51
75457;SHT31;64036;48.266;14.192;2023-01-16T01:38:25;3.56;79.50
75457;SHT31;64036;48.266;14.192;2023-01-16T01:41:06;3.56;79.49
75457;SHT31;64036;48.266;14.192;2023-01-16T01:51:20;3.60;79.40
75457;SHT31;64036;48.266;14.192;2023-01-16T01:57:20;3.62;79.30
75457;SHT31;64036;48.266;14.192;2023-01-16T02:00:27;3.61;79.33
75457;SHT31;64036;48.266;14.192;2023-01-16T02:02:59;3.58;79.30
75457;SHT31;64036;48.266;14.192;2023-01-16T02:05:34;3.56;79.42
75457;SHT31;64036;48.266;14.192;2023-01-16T02:08:19;3.58;79.39
75457;SHT31;64036;48.266;14.192;2023-01-16T02:10:51;3.58;79.26
75457;SHT31;64036;48.266;14.192;2023-01-16T02:13:43;3.54;79.43
75457;SHT31;64036;48.266;14.192;2023-01-16T02:16:23;3.52;79.48
75457;SHT31;64036;48.266;14.192;2023-01-16T02:20:02;3.49;79.56
75457;SHT31;64036;48.266;14.192;2023-01-16T02:22:29;3.45;79.62
75457;SHT31;64036;48.266;14.192;2023-01-16T02:36:07;3.38;79.79
75457;SHT31;64036;48.266;14.192;2023-01-16T02:55:39;3.35;80.20
75457;SHT31;64036;48.266;14.192;2023-01-16T02:58:08;3.35;80.09
75457;SHT31;64036;48.266;14.192;2023-01-16T03:01:04;3.36;80.05
75457;SHT31;64036;48.266;14.192;2023-01-16T03:06:53;3.32;80.11
75457;SHT31;64036;48.266;14.192;2023-01-16T03:20:07;3.25;80.44
75457;SHT31;64036;48.266;14.192;2023-01-16T03:23:50;3.26;80.50
75457;SHT31;64036;48.266;14.192;2023-01-16T03:27:05;3.27;80.51
75457;SHT31;64036;48.266;14.192;2023-01-16T03:32:53;3.30;80.50
75457;SHT31;64036;48.266;14.192;2023-01-16T03:36:15;3.30;80.60
75457;SHT31;64036;48.266;14.192;2023-01-16T03:38:50;3.29;80.67
75457;SHT31;64036;48.266;14.192;2023-01-16T03:41:20;3.27;80.73
75457;SHT31;64036;48.266;14.192;2023-01-16T03:43:50;3.29;80.80
75457;SHT31;64036;48.266;14.192;2023-01-16T03:46:31;3.31;80.80
75457;SHT31;64036;48.266;14.192;2023-01-16T03:49:48;3.32;80.81
75457;SHT31;64036;48.266;14.192;2023-01-16T03:52:41;3.32;80.92
75457;SHT31;64036;48.266;14.192;2023-01-16T03:58:48;3.35;81.08
75457;SHT31;64036;48.266;14.192;2023-01-16T04:04:30;3.37;81.23
75457;SHT31;64036;48.266;14.192;2023-01-16T04:11:22;3.41;81.37
75457;SHT31;64036;48.266;14.192;2023-01-16T04:13:53;3.42;81.40
75457;SHT31;64036;48.266;14.192;2023-01-16T04:17:07;3.42;81.40
75457;SHT31;64036;48.266;14.192;2023-01-16T04:19:40;3.44;81.35
75457;SHT31;64036;48.266;14.192;2023-01-16T04:22:07;3.44;81.29
75457;SHT31;64036;48.266;14.192;2023-01-16T04:24:34;3.45;81.23
75457;SHT31;64036;48.266;14.192;2023-01-16T04:27:20;3.46;81.19
75457;SHT31;64036;48.266;14.192;2023-01-16T04:29:48;3.46;81.20
75457;SHT31;64036;48.266;14.192;2023-01-16T04:32:24;3.48;81.20
75457;SHT31;64036;48.266;14.192;2023-01-16T04:37:49;3.46;81.16
75457;SHT31;64036;48.266;14.192;2023-01-16T04:40:37;3.43;81.20
75457;SHT31;64036;48.266;14.192;2023-01-16T04:43:06;3.42;81.26
75457;SHT31;64036;48.266;14.192;2023-01-16T04:45:35;3.44;81.25
75457;SHT31;64036;48.266;14.192;2023-01-16T04:48:21;3.46;81.16
75457;SHT31;64036;48.266;14.192;2023-01-16T04:50:57;3.48;81.10
75457;SHT31;64036;48.266;14.192;2023-01-16T04:56:15;3.48;80.96
75457;SHT31;64036;48.266;14.192;2023-01-16T04:58:43;3.48;80.90
75457;SHT31;64036;48.266;14.192;2023-01-16T05:01:24;3.49;80.81
75457;SHT31;64036;48.266;14.192;2023-01-16T05:04:09;3.50;80.72
75457;SHT31;64036;48.266;14.192;2023-01-16T05:06:35;3.51;80.68
75457;SHT31;64036;48.266;14.192;2023-01-16T05:15:44;3.54;80.45
75457;SHT31;64036;48.266;14.192;2023-01-16T05:21:29;3.52;80.43
75457;SHT31;64036;48.266;14.192;2023-01-16T05:24:16;3.53;80.42
75457;SHT31;64036;48.266;14.192;2023-01-16T05:26:45;3.51;80.49
75457;SHT31;64036;48.266;14.192;2023-01-16T05:29:13;3.49;80.52
75457;SHT31;64036;48.266;14.192;2023-01-16T05:31:42;3.48;80.60
75457;SHT31;64036;48.266;14.192;2023-01-16T05:34:11;3.45;80.60
75457;SHT31;64036;48.266;14.192;2023-01-16T05:39:34;3.43;80.71
75457;SHT31;64036;48.266;14.192;2023-01-16T05:42:10;3.44;80.71
75457;SHT31;64036;48.266;14.192;2023-01-16T05:45:07;3.43;80.70
75457;SHT31;64036;48.266;14.192;2023-01-16T05:50:33;3.41;80.61
75457;SHT31;64036;48.266;14.192;2023-01-16T05:53:06;3.39;80.60
75457;SHT31;64036;48.266;14.192;2023-01-16T05:55:36;3.38;80.59
75457;SHT31;64036;48.266;14.192;2023-01-16T05:58:11;3.39;80.51
75457;SHT31;64036;48.266;14.192;2023-01-16T06:00:38;3.40;80.41
75457;SHT31;64036;48.266;14.192;2023-01-16T06:03:10;3.41;80.37
75457;SHT31;64036;48.266;14.192;2023-01-16T06:11:30;3.41;80.09
75457;SHT31;64036;48.266;14.192;2023-01-16T06:14:25;3.42;80.07
75457;SHT31;64036;48.266;14.192;2023-01-16T06:17:27;3.41;80.04
75457;SHT31;64036;48.266;14.192;2023-01-16T06:20:26;3.40;80.00
75457;SHT31;64036;48.266;14.192;2023-01-16T06:22:58;3.39;79.93
75457;SHT31;64036;48.266;14.192;2023-01-16T06:25:24;3.38;79.91
75457;SHT31;64036;48.266;14.192;2023-01-16T06:28:28;3.30;79.92
75457;SHT31;64036;48.266;14.192;2023-01-16T06:42:56;3.10;80.20
75457;SHT31;64036;48.266;14.192;2023-01-16T06:48:38;3.02;80.20
75457;SHT31;64036;48.266;14.192;2023-01-16T06:51:23;2.98;80.26
75457;SHT31;64036;48.266;14.192;2023-01-16T06:54:22;2.95;80.37
75457;SHT31;64036;48.266;14.192;2023-01-16T06:57:21;2.94;80.39
75457;SHT31;64036;48.266;14.192;2023-01-16T06:59:49;2.94;80.34
75457;SHT31;64036;48.266;14.192;2023-01-16T07:02:36;2.92;80.29
75457;SHT31;64036;48.266;14.192;2023-01-16T07:05:31;2.93;80.20
75457;SHT31;64036;48.266;14.192;2023-01-16T07:11:50;2.88;80.11
75457;SHT31;64036;48.266;14.192;2023-01-16T07:15:00;2.86;80.17
75457;SHT31;64036;48.266;14.192;2023-01-16T07:17:50;2.85;80.28
75457;SHT31;64036;48.266;14.192;2023-01-16T07:21:20;2.87;80.27
75457;SHT31;64036;48.266;14.192;2023-01-16T07:24:23;2.88;80.22
75457;SHT31;64036;48.266;14.192;2023-01-16T07:31:22;2.98;80.06
75457;SHT31;64036;48.266;14.192;2023-01-16T07:34:24;3.08;79.95
75457;SHT31;64036;48.266;14.192;2023-01-16T07:37:37;3.38;79.69
75457;SHT31;64036;48.266;14.192;2023-01-16T07:40:30;4.34;78.84
75457;SHT31;64036;48.266;14.192;2023-01-16T07:42:56;5.19;77.49
75457;SHT31;64036;48.266;14.192;2023-01-16T07:45:27;5.89;75.90
75457;SHT31;64036;48.266;14.192;2023-01-16T07:47:58;6.74;73.96
75457;SHT31;64036;48.266;14.192;2023-01-16T07:50:26;7.53;71.29
75457;SHT31;64036;48.266;14.192;2023-01-16T07:52:52;8.34;69.40
75457;SHT31;64036;48.266;14.192;2023-01-16T07:55:18;9.12;66.62
75457;SHT31;64036;48.266;14.192;2023-01-16T07:57:44;9.75;63.39
75457;SHT31;64036;48.266;14.192;2023-01-16T08:00:10;10.32;61.72
75457;SHT31;64036;48.266;14.192;2023-01-16T08:02:37;10.80;60.15
75457;SHT31;64036;48.266;14.192;2023-01-16T08:05:04;11.39;59.20
75457;SHT31;64036;48.266;14.192;2023-01-16T08:07:30;11.77;56.96
75457;SHT31;64036;48.266;14.192;2023-01-16T08:09:55;12.15;56.19
75457;SHT31;64036;48.266;14.192;2023-01-16T08:12:21;12.49;54.66
75457;SHT31;64036;48.266;14.192;2023-01-16T08:14:47;12.79;53.99
75457;SHT31;64036;48.266;14.192;2023-01-16T08:17:12;13.09;52.89
75457;SHT31;64036;48.266;14.192;2023-01-16T08:19:38;13.53;52.74
75457;SHT31;64036;48.266;14.192;2023-01-16T08:22:03;13.96;51.38
75457;SHT31;64036;48.266;14.192;2023-01-16T08:24:29;14.10;48.39
75457;SHT31;64036;48.266;14.192;2023-01-16T08:26:55;14.10;48.04
75457;SHT31;64036;48.266;14.192;2023-01-16T08:29:22;14.27;47.99
75457;SHT31;64036;48.266;14.192;2023-01-16T08:31:48;14.56;47.97
75457;SHT31;64036;48.266;14.192;2023-01-16T08:34:15;14.83;47.51
75457;SHT31;64036;48.266;14.192;2023-01-16T08:36:41;14.92;45.91
75457;SHT31;64036;48.266;14.192;2023-01-16T08:39:10;14.98;45.60
75457;SHT31;64036;48.266;14.192;2023-01-16T08:41:36;15.19;45.44
75457;SHT31;64036;48.266;14.192;2023-01-16T08:44:21;15.15;44.71
75457;SHT31;64036;48.266;14.192;2023-01-16T08:47:13;15.40;44.53
75457;SHT31;64036;48.266;14.192;2023-01-16T08:50:03;15.52;44.16
75457;SHT31;64036;48.266;14.192;2023-01-16T08:52:48;15.49;43.12
75457;SHT31;64036;48.266;14.192;2023-01-16T08:55:13;15.49;43.25
75457;SHT31;64036;48.266;14.192;2023-01-16T08:57:39;15.75;43.51
75457;SHT31;64036;48.266;14.192;2023-01-16T09:00:05;16.01;43.27
75457;SHT31;64036;48.266;14.192;2023-01-16T09:02:32;16.20;42.84
75457;SHT31;64036;48.266;14.192;2023-01-16T09:05:01;16.16;41.37
75457;SHT31;64036;48.266;14.192;2023-01-16T09:07:27;16.26;41.94
75457;SHT31;64036;48.266;14.192;2023-01-16T09:09:54;16.26;40.61
75457;SHT31;64036;48.266;14.192;2023-01-16T09:12:19;16.02;40.69
75457;SHT31;64036;48.266;14.192;2023-01-16T09:15:04;15.55;41.58
75457;SHT31;64036;48.266;14.192;2023-01-16T09:17:30;15.31;41.07
75457;SHT31;64036;48.266;14.192;2023-01-16T09:19:56;15.18;40.79
75457;SHT31;64036;48.266;14.192;2023-01-16T09:22:22;15.08;40.42
75457;SHT31;64036;48.266;14.192;2023-01-16T09:24:48;14.73;40.57
75457;SHT31;64036;48.266;14.192;2023-01-16T09:27:14;14.61;41.66
75457;SHT31;64036;48.266;14.192;2023-01-16T09:29:40;14.53;41.56
75457;SHT31;64036;48.266;14.192;2023-01-16T09:32:06;14.35;42.28
75457;SHT31;64036;48.266;14.192;2023-01-16T09:34:34;14.31;42.63
75457;SHT31;64036;48.266;14.192;2023-01-16T09:37:01;14.26;42.65
75457;SHT31;64036;48.266;14.192;2023-01-16T09:39:27;14.11;42.39
75457;SHT31;64036;48.266;14.192;2023-01-16T09:44:41;13.59;43.46
75457;SHT31;64036;48.266;14.192;2023-01-16T09:47:10;13.46;43.83
75457;SHT31;64036;48.266;14.192;2023-01-16T09:49:47;13.15;44.10
75457;SHT31;64036;48.266;14.192;2023-01-16T09:52:22;13.03;45.22
75457;SHT31;64036;48.266;14.192;2023-01-16T09:55:53;12.81;45.18
75457;SHT31;64036;48.266;14.192;2023-01-16T09:58:26;12.55;45.98
75457;SHT31;64036;48.266;14.192;2023-01-16T10:01:00;12.48;46.13
75457;SHT31;64036;48.266;14.192;2023-01-16T10:04:41;12.22;46.24
75457;SHT31;64036;48.266;14.192;2023-01-16T10:07:04;12.12;46.66
75457;SHT31;64036;48.266;14.192;2023-01-16T10:10:02;12.02;47.13
75457;SHT31;64036;48.266;14.192;2023-01-16T10:12:59;11.95;47.46
75457;SHT31;64036;48.266;14.192;2023-01-16T10:19:14;11.66;48.54
75457;SHT31;64036;48.266;14.192;2023-01-16T10:25:11;11.40;49.68
75457;SHT31;64036;48.266;14.192;2023-01-16T10:35:53;10.79;50.87
75457;SHT31;64036;48.266;14.192;2023-01-16T10:38:22;10.75;51.15
75457;SHT31;64036;48.266;14.192;2023-01-16T10:41:20;10.77;52.02
75457;SHT31;64036;48.266;14.192;2023-01-16T10:44:30;10.80;51.59
75457;SHT31;64036;48.266;14.192;2023-01-16T10:47:22;10.73;51.71
75457;SHT31;64036;48.266;14.192;2023-01-16T10:50:13;10.68;51.30
75457;SHT31;64036;48.266;14.192;2023-01-16T10:52:40;10.59;51.66
75457;SHT31;64036;48.266;14.192;2023-01-16T10:55:06;10.48;51.74
75457;SHT31;64036;48.266;14.192;2023-01-16T10:57:33;10.41;52.12
75457;SHT31;64036;48.266;14.192;2023-01-16T11:00:10;10.36;52.06
75457;SHT31;64036;48.266;14.192;2023-01-16T11:02:45;10.34;52.35
75457;SHT31;64036;48.266;14.192;2023-01-16T11:05:31;10.26;51.92
75457;SHT31;64036;48.266;14.192;2023-01-16T11:08:13;10.17;51.74
75457;SHT31;64036;48.266;14.192;2023-01-16T11:10:46;10.23;52.63
75457;SHT31;64036;48.266;14.192;2023-01-16T11:13:32;10.24;51.80
75457;SHT31;64036;48.266;14.192;2023-01-16T11:16:21;10.14;52.48
75457;SHT31;64036;48.266;14.192;2023-01-16T11:19:15;10.15;53.02
75457;SHT31;64036;48.266;14.192;2023-01-16T11:21:56;10.17;52.74
75457;SHT31;64036;48.266;14.192;2023-01-16T11:24:34;10.10;51.92
75457;SHT31;64036;48.266;14.192;2023-01-16T11:27:04;10.11;52.51
75457;SHT31;64036;48.266;14.192;2023-01-16T11:29:38;10.01;52.02
75457;SHT31;64036;48.266;14.192;2023-01-16T11:32:09;9.98;52.85
75457;SHT31;64036;48.266;14.192;2023-01-16T11:34:49;10.02;52.19
75457;SHT31;64036;48.266;14.192;2023-01-16T11:37:33;9.99;51.93
75457;SHT31;64036;48.266;14.192;2023-01-16T11:40:04;9.97;52.12
75457;SHT31;64036;48.266;14.192;2023-01-16T11:42:33;9.98;52.97
75457;SHT31;64036;48.266;14.192;2023-01-16T11:45:20;9.95;52.28
75457;SHT31;64036;48.266;14.192;2023-01-16T11:48:08;9.86;52.24
75457;SHT31;64036;48.266;14.192;2023-01-16T11:50:56;9.81;52.73
75457;SHT31;64036;48.266;14.192;2023-01-16T11:53:32;9.75;52.49
75457;SHT31;64036;48.266;14.192;2023-01-16T11:56:14;9.72;52.31
75457;SHT31;64036;48.266;14.192;2023-01-16T12:02:52;9.77;53.47
75457;SHT31;64036;48.266;14.192;2023-01-16T12:09:03;9.75;52.31
75457;SHT31;64036;48.266;14.192;2023-01-16T12:11:58;9.70;52.24
75457;SHT31;64036;48.266;14.192;2023-01-16T12:14:59;9.64;52.01
75457;SHT31;64036;48.266;14.192;2023-01-16T12:17:51;9.52;52.78
75457;SHT31;64036;48.266;14.192;2023-01-16T12:20:33;9.48;52.65
75457;SHT31;64036;48.266;14.192;2023-01-16T12:26:24;9.49;52.95
75457;SHT31;64036;48.266;14.192;2023-01-16T12:31:37;9.53;52.11
75457;SHT31;64036;48.266;14.192;2023-01-16T12:37:30;9.57;52.38
75457;SHT31;64036;48.266;14.192;2023-01-16T12:44:02;9.45;52.19
75457;SHT31;64036;48.266;14.192;2023-01-16T12:52:03;9.45;51.92
75457;SHT31;64036;48.266;14.192;2023-01-16T12:55:31;9.41;51.44
75457;SHT31;64036;48.266;14.192;2023-01-16T12:58:17;9.33;51.30
75457;SHT31;64036;48.266;14.192;2023-01-16T13:06:58;9.43;52.48
75457;SHT31;64036;48.266;14.192;2023-01-16T13:09:35;9.51;52.72
75457;SHT31;64036;48.266;14.192;2023-01-16T13:15:11;9.51;52.63
75457;SHT31;64036;48.266;14.192;2023-01-16T13:17:59;9.56;53.64
75457;SHT31;64036;48.266;14.192;2023-01-16T13:20:41;9.54;52.98
75457;SHT31;64036;48.266;14.192;2023-01-16T13:23:26;9.47;53.29
75457;SHT31;64036;48.266;14.192;2023-01-16T13:25:59;9.40;53.31
75457;SHT31;64036;48.266;14.192;2023-01-16T13:31:58;9.30;53.87
75457;SHT31;64036;48.266;14.192;2023-01-16T13:34:48;9.28;54.12
75457;SHT31;64036;48.266;14.192;2023-01-16T13:37:54;9.20;54.29
75457;SHT31;64036;48.266;14.192;2023-01-16T13:41:19;9.06;53.74
75457;SHT31;64036;48.266;14.192;2023-01-16T13:44:17;8.96;53.41
75457;SHT31;64036;48.266;14.192;2023-01-16T13:47:08;8.91;53.89
75457;SHT31;64036;48.266;14.192;2023-01-16T13:49:54;8.88;54.51
75457;SHT31;64036;48.266;14.192;2023-01-16T13:52:30;8.85;54.38
75457;SHT31;64036;48.266;14.192;2023-01-16T13:55:00;8.83;54.51
75457;SHT31;64036;48.266;14.192;2023-01-16T13:57:31;8.80;54.53
75457;SHT31;64036;48.266;14.192;2023-01-16T14:00:12;8.75;54.31
75457;SHT31;64036;48.266;14.192;2023-01-16T14:02:42;8.67;54.17
75457;SHT31;64036;48.266;14.192;2023-01-16T14:05:18;8.62;54.78
75457;SHT31;64036;48.266;14.192;2023-01-16T14:08:19;8.56;55.37
75457;SHT31;64036;48.266;14.192;2023-01-16T14:11:32;8.48;55.06
75457;SHT31;64036;48.266;14.192;2023-01-16T14:23:18;8.14;55.90
75457;SHT31;64036;48.266;14.192;2023-01-16T14:26:07;8.06;56.01
75457;SHT31;64036;48.266;14.192;2023-01-16T14:28:38;8.04;56.59
75457;SHT31;64036;48.266;14.192;2023-01-16T14:31:22;8.01;56.78
75457;SHT31;64036;48.266;14.192;2023-01-16T14:34:00;7.94;56.80
75457;SHT31;64036;48.266;14.192;2023-01-16T14:36:27;7.85;56.72
75457;SHT31;64036;48.266;14.192;2023-01-16T14:38:58;7.75;57.23
75457;SHT31;64036;48.266;14.192;2023-01-16T14:41:26;7.68;57.65
75457;SHT31;64036;48.266;14.192;2023-01-16T14:44:20;7.60;58.11
75457;SHT31;64036;48.266;14.192;2023-01-16T14:47:44;7.50;58.69
75457;SHT31;64036;48.266;14.192;2023-01-16T14:50:41;7.39;58.99
75457;SHT31;64036;48.266;14.192;2023-01-16T14:53:48;7.28;59.29
75457;SHT31;64036;48.266;14.192;2023-01-16T14:57:15;7.18;59.41
75457;SHT31;64036;48.266;14.192;2023-01-16T15:02:53;7.03;59.92
75457;SHT31;64036;48.266;14.192;2023-01-16T15:05:32;6.95;60.11
75457;SHT31;64036;48.266;14.192;2023-01-16T15:08:24;6.90;59.97
75457;SHT31;64036;48.266;14.192;2023-01-16T15:10:55;6.87;60.14
75457;SHT31;64036;48.266;14.192;2023-01-16T15:13:30;6.81;60.12
75457;SHT31;64036;48.266;14.192;2023-01-16T15:16:16;6.77;60.29
75457;SHT31;64036;48.266;14.192;2023-01-16T15:19:15;6.67;60.90
75457;SHT31;64036;48.266;14.192;2023-01-16T15:22:14;6.60;60.93
75457;SHT31;64036;48.266;14.192;2023-01-16T15:24:58;6.55;60.97
75457;SHT31;64036;48.266;14.192;2023-01-16T15:27:57;6.50;61.08
75457;SHT31;64036;48.266;14.192;2023-01-16T15:30:48;6.43;61.25
75457;SHT31;64036;48.266;14.192;2023-01-16T15:33:25;6.37;61.37
75457;SHT31;64036;48.266;14.192;2023-01-16T15:39:18;6.26;61.56
75457;SHT31;64036;48.266;14.192;2023-01-16T15:49:56;6.11;62.00
75457;SHT31;64036;48.266;14.192;2023-01-16T15:52:42;6.09;61.92
75457;SHT31;64036;48.266;14.192;2023-01-16T15:55:19;6.08;61.95
75457;SHT31;64036;48.266;14.192;2023-01-16T15:58:20;6.09;61.83
75457;SHT31;64036;48.266;14.192;2023-01-16T16:00:58;6.08;61.86
75457;SHT31;64036;48.266;14.192;2023-01-16T16:03:54;6.02;62.39
75457;SHT31;64036;48.266;14.192;2023-01-16T16:06:34;5.97;62.46
75457;SHT31;64036;48.266;14.192;2023-01-16T16:09:03;5.95;62.43
75457;SHT31;64036;48.266;14.192;2023-01-16T16:11:31;5.94;62.43
75457;SHT31;64036;48.266;14.192;2023-01-16T16:18:17;5.93;62.43
75457;SHT31;64036;48.266;14.192;2023-01-16T16:21:02;5.93;62.60
75457;SHT31;64036;48.266;14.192;2023-01-16T16:23:36;5.91;62.62
75457;SHT31;64036;48.266;14.192;2023-01-16T16:26:04;5.88;62.91
75457;SHT31;64036;48.266;14.192;2023-01-16T16:28:37;5.88;62.64
75457;SHT31;64036;48.266;14.192;2023-01-16T16:34:05;5.87;62.99
75457;SHT31;64036;48.266;14.192;2023-01-16T16:36:44;5.89;63.00
75457;SHT31;64036;48.266;14.192;2023-01-16T16:46:49;5.79;63.23
75457;SHT31;64036;48.266;14.192;2023-01-16T17:03:30;5.76;63.37
75457;SHT31;64036;48.266;14.192;2023-01-16T17:07:08;5.74;63.64
75457;SHT31;64036;48.266;14.192;2023-01-16T17:10:33;5.73;63.39
75457;SHT31;64036;48.266;14.192;2023-01-16T17:13:04;5.72;63.47
75457;SHT31;64036;48.266;14.192;2023-01-16T17:15:44;5.70;63.63
75457;SHT31;64036;48.266;14.192;2023-01-16T17:21:30;5.66;63.59
75457;SHT31;64036;48.266;14.192;2023-01-16T17:24:01;5.65;63.56
75457;SHT31;64036;48.266;14.192;2023-01-16T17:26:47;5.65;63.57
75457;SHT31;64036;48.266;14.192;2023-01-16T17:29:14;5.62;63.86
75457;SHT31;64036;48.266;14.192;2023-01-16T17:31:43;5.56;64.16
75457;SHT31;64036;48.266;14.192;2023-01-16T17:34:13;5.48;64.53
75457;SHT31;64036;48.266;14.192;2023-01-16T17:36:41;5.46;64.40
75457;SHT31;64036;48.266;14.192;2023-01-16T17:39:07;5.45;64.38
75457;SHT31;64036;48.266;14.192;2023-01-16T17:41:34;5.44;64.52
75457;SHT31;64036;48.266;14.192;2023-01-16T17:44:23;5.43;64.45
75457;SHT31;64036;48.266;14.192;2023-01-16T17:47:22;5.43;64.46
75457;SHT31;64036;48.266;14.192;2023-01-16T17:50:01;5.44;64.51
75457;SHT31;64036;48.266;14.192;2023-01-16T17:52:54;5.42;64.66
75457;SHT31;64036;48.266;14.192;2023-01-16T17:55:21;5.42;64.67
75457;SHT31;64036;48.266;14.192;2023-01-16T17:58:06;5.37;64.97
75457;SHT31;64036;48.266;14.192;2023-01-16T18:00:32;5.36;65.14
75457;SHT31;64036;48.266;14.192;2023-01-16T18:02:59;5.33;65.24
75457;SHT31;64036;48.266;14.192;2023-01-16T18:05:46;5.34;65.23
75457;SHT31;64036;48.266;14.192;2023-01-16T18:08:21;5.32;65.44
75457;SHT31;64036;48.266;14.192;2023-01-16T18:10:47;5.30;65.69
75457;SHT31;64036;48.266;14.192;2023-01-16T18:13:21;5.31;65.63
75457;SHT31;64036;48.266;14.192;2023-01-16T18:16:06;5.30;66.02
75457;SHT31;64036;48.266;14.192;2023-01-16T18:18:54;5.29;65.93
75457;SHT31;64036;48.266;14.192;2023-01-16T18:21:35;5.30;66.02
75457;SHT31;64036;48.266;14.192;2023-01-16T18:24:37;5.27;66.17
75457;SHT31;64036;48.266;14.192;2023-01-16T18:27:08;5.22;66.37
75457;SHT31;64036;48.266;14.192;2023-01-16T18:29:37;5.19;66.48
75457;SHT31;64036;48.266;14.192;2023-01-16T18:32:13;5.20;66.44
75457;SHT31;64036;48.266;14.192;2023-01-16T18:35:06;5.20;66.48
75457;SHT31;64036;48.266;14.192;2023-01-16T18:37:34;5.19;66.93
75457;SHT31;64036;48.266;14.192;2023-01-16T18:40:02;5.11;67.23
75457;SHT31;64036;48.266;14.192;2023-01-16T18:42:49;5.03;67.52
75457;SHT31;64036;48.266;14.192;2023-01-16T18:45:34;4.97;67.77
75457;SHT31;64036;48.266;14.192;2023-01-16T18:48:18;4.90;67.82
75457;SHT31;64036;48.266;14.192;2023-01-16T18:51:04;4.87;67.82
75457;SHT31;64036;48.266;14.192;2023-01-16T18:53:55;4.86;67.77
75457;SHT31;64036;48.266;14.192;2023-01-16T18:56:43;4.81;67.86
75457;SHT31;64036;48.266;14.192;2023-01-16T18:59:56;4.77;67.98
75457;SHT31;64036;48.266;14.192;2023-01-16T19:02:49;4.72;68.07
75457;SHT31;64036;48.266;14.192;2023-01-16T19:05:19;4.68;68.08
75457;SHT31;64036;48.266;14.192;2023-01-16T19:07:55;4.66;67.94
75457;SHT31;64036;48.266;14.192;2023-01-16T19:10:50;4.64;68.01
75457;SHT31;64036;48.266;14.192;2023-01-16T19:13:24;4.59;68.05
75457;SHT31;64036;48.266;14.192;2023-01-16T19:16:02;4.55;68.28
75457;SHT31;64036;48.266;14.192;2023-01-16T19:18:51;4.49;68.60
75457;SHT31;64036;48.266;14.192;2023-01-16T19:21:17;4.45;68.78
75457;SHT31;64036;48.266;14.192;2023-01-16T19:23:43;4.44;68.75
75457;SHT31;64036;48.266;14.192;2023-01-16T19:26:09;4.43;68.74
75457;SHT31;64036;48.266;14.192;2023-01-16T19:28:40;4.41;68.88
75457;SHT31;64036;48.266;14.192;2023-01-16T19:31:07;4.36;69.24
75457;SHT31;64036;48.266;14.192;2023-01-16T19:34:08;4.29;69.68
75457;SHT31;64036;48.266;14.192;2023-01-16T19:36:35;4.24;69.53
75457;SHT31;64036;48.266;14.192;2023-01-16T19:39:05;4.23;69.60
75457;SHT31;64036;48.266;14.192;2023-01-16T19:41:35;4.22;69.76
75457;SHT31;64036;48.266;14.192;2023-01-16T19:44:25;4.17;70.30
75457;SHT31;64036;48.266;14.192;2023-01-16T19:47:23;4.15;70.27
75457;SHT31;64036;48.266;14.192;2023-01-16T19:49:48;4.14;70.27
75457;SHT31;64036;48.266;14.192;2023-01-16T19:52:14;4.13;70.41
75457;SHT31;64036;48.266;14.192;2023-01-16T19:54:43;4.12;70.69
75457;SHT31;64036;48.266;14.192;2023-01-16T19:57:09;4.12;70.83
75457;SHT31;64036;48.266;14.192;2023-01-16T19:59:34;4.12;70.74
75457;SHT31;64036;48.266;14.192;2023-01-16T20:02:04;4.13;70.84
75457;SHT31;64036;48.266;14.192;2023-01-16T20:04:41;4.12;71.06
75457;SHT31;64036;48.266;14.192;2023-01-16T20:07:09;4.14;70.75
75457;SHT31;64036;48.266;14.192;2023-01-16T20:12:37;4.26;70.39
75457;SHT31;64036;48.266;14.192;2023-01-16T20:15:03;4.28;70.50
75457;SHT31;64036;48.266;14.192;2023-01-16T20:17:43;4.27;70.61
75457;SHT31;64036;48.266;14.192;2023-01-16T20:20:14;4.29;70.57
75457;SHT31;64036;48.266;14.192;2023-01-16T20:22:43;4.31;70.40
75457;SHT31;64036;48.266;14.192;2023-01-16T20:25:11;4.31;70.47
75457;SHT31;64036;48.266;14.192;2023-01-16T20:27:45;4.33;70.45
75457;SHT31;64036;48.266;14.192;2023-01-16T20:30:20;4.33;70.61
75457;SHT31;64036;48.266;14.192;2023-01-16T20:33:14;4.29;70.87
75457;SHT31;64036;48.266;14.192;2023-01-16T20:36:05;4.23;71.00
75457;SHT31;64036;48.266;14.192;2023-01-16T20:42:09;4.23;70.86
75457;SHT31;64036;48.266;14.192;2023-01-16T20:45:21;4.19;70.87
75457;SHT31;64036;48.266;14.192;2023-01-16T20:48:05;4.19;70.78
75457;SHT31;64036;48.266;14.192;2023-01-16T20:50:53;4.17;70.72
75457;SHT31;64036;48.266;14.192;2023-01-16T20:53:31;4.19;70.60